Terminal Aerodrome Forecast
Issued by NWS

Home | Current Version | Previous Version | Text Only | Print | Product List | Glossary On
Versions: 1 2 3 4 5 6 7 8 9 10 11 12 13 14 15
000
FTUS42 KILM 011404 AAA
TAFCRE
TAF AMD
KCRE 011404Z 0114/0212 26006KT P6SM SCT035 SCT250
      TEMPO 0114/0115 BKN010
     FM011700 22009KT P6SM VCSH SCT040 SCT080
     FM012100 21014KT P6SM FEW050 SCT120
     FM020400 24006KT P6SM VCSH BKN070=

USA.gov is the U.S. government's official web portal to all federal, state and local government web resources and services.